Time;durP1;ratioP1;P1;durP2;ratioP2;P2;SDS_P1;SDS_P2;PMS_P1;PMS_P2;Temp;Humidity;BMP_temperature;BMP_pressure;BME280_temperature;BME280_humidity;BME280_pressure;Samples;Min_cycle;Max_cycle;Signal;HPM_P1;HPM_P2
2021/07/05 00:00:23;;;;;;;24.80;11.30;;;16.10;99.90;;;;;;4989111;28;20042;-95
2021/07/05 00:02:50;;;;;;;20.95;9.13;;;16.10;99.90;;;;;;5005879;28;20121;-91
2021/07/05 00:05:16;;;;;;;14.80;9.00;;;16.10;99.90;;;;;;4998133;28;20597;-93
2021/07/05 00:07:42;;;;;;;19.98;9.18;;;16.10;99.90;;;;;;5002696;28;20387;-93
2021/07/05 00:10:10;;;;;;;16.27;10.00;;;16.10;99.90;;;;;;4989592;28;20107;-92
2021/07/05 00:12:36;;;;;;;23.42;8.82;;;16.10;99.90;;;;;;4979043;28;20049;-94
2021/07/05 00:15:04;;;;;;;11.65;8.90;;;16.10;99.90;;;;;;4993895;28;20041;-95
2021/07/05 00:17:30;;;;;;;15.70;10.20;;;16.10;99.90;;;;;;4968993;28;20121;-92
2021/07/05 00:19:57;;;;;;;21.45;11.55;;;16.10;99.90;;;;;;4989296;28;20550;-90
2021/07/05 00:22:23;;;;;;;19.42;9.05;;;16.10;99.90;;;;;;4984206;28;20042;-94
2021/07/05 00:24:49;;;;;;;18.33;8.75;;;16.10;99.90;;;;;;4977729;28;20049;-89
2021/07/05 00:27:16;;;;;;;20.45;10.18;;;16.10;99.90;;;;;;4972789;28;20038;-91
2021/07/05 00:29:41;;;;;;;20.15;9.85;;;16.10;99.90;;;;;;4973632;28;20047;-92
2021/07/05 00:32:07;;;;;;;13.13;8.85;;;16.10;99.90;;;;;;4988946;28;20073;-92
2021/07/05 00:34:33;;;;;;;22.13;9.48;;;16.10;99.90;;;;;;5011417;28;20050;-93
2021/07/05 00:36:59;;;;;;;17.80;9.52;;;16.10;99.90;;;;;;4961044;28;20045;-90
2021/07/05 00:39:25;;;;;;;22.88;11.40;;;16.20;99.90;;;;;;4977335;28;20060;-92
2021/07/05 00:41:50;;;;;;;15.55;8.55;;;16.20;99.90;;;;;;4993782;28;20030;-94
2021/07/05 00:44:16;;;;;;;23.95;10.23;;;16.20;99.90;;;;;;4972379;28;20291;-94
2021/07/05 00:46:43;;;;;;;21.80;9.38;;;16.20;99.90;;;;;;5010944;28;20045;-94
2021/07/05 00:49:09;;;;;;;14.77;9.20;;;16.20;99.90;;;;;;4993161;28;20038;-91
2021/07/05 00:51:35;;;;;;;17.15;9.00;;;16.20;99.90;;;;;;4962464;28;20043;-94
2021/07/05 00:54:02;;;;;;;15.90;9.48;;;16.20;99.90;;;;;;5009552;28;20038;-91
2021/07/05 00:56:28;;;;;;;17.90;9.75;;;16.20;99.90;;;;;;4993421;28;20508;-95
2021/07/05 00:58:55;;;;;;;22.20;9.80;;;16.30;99.90;;;;;;4964407;28;20050;-94
2021/07/05 01:01:22;;;;;;;20.55;10.32;;;16.30;99.90;;;;;;4951792;28;20053;-93
2021/07/05 01:03:47;;;;;;;15.75;9.50;;;16.30;99.90;;;;;;4955902;28;20042;-95
2021/07/05 01:06:13;;;;;;;15.07;9.25;;;16.30;99.90;;;;;;4945553;28;20562;-94
2021/07/05 01:08:40;;;;;;;28.20;11.43;;;16.30;99.90;;;;;;4974383;28;20053;-94
2021/07/05 01:11:06;;;;;;;20.75;10.30;;;16.30;99.90;;;;;;4957380;28;20112;-91
2021/07/05 01:13:31;;;;;;;18.30;9.98;;;16.30;99.90;;;;;;4957795;28;20050;-95
2021/07/05 01:15:57;;;;;;;18.50;10.57;;;16.30;99.90;;;;;;4977803;28;20077;-94
2021/07/05 01:18:23;;;;;;;18.63;9.30;;;16.30;99.90;;;;;;4984119;28;20045;-95
2021/07/05 01:20:49;;;;;;;19.73;11.52;;;16.30;99.90;;;;;;4945134;28;20112;-91
2021/07/05 01:23:15;;;;;;;21.67;11.95;;;16.40;99.90;;;;;;4983050;28;20114;-95
2021/07/05 01:25:41;;;;;;;15.95;11.52;;;16.40;99.90;;;;;;4968254;28;20874;-92
2021/07/05 01:28:10;;;;;;;17.60;11.30;;;16.40;99.90;;;;;;4972686;28;20500;-91
2021/07/05 01:30:36;;;;;;;23.38;12.00;;;16.40;99.90;;;;;;4973799;28;20042;-95
2021/07/05 01:33:05;;;;;;;21.73;14.10;;;16.40;99.90;;;;;;4986002;28;20096;-96
2021/07/05 01:35:32;;;;;;;21.52;11.23;;;16.40;99.90;;;;;;4973604;28;20097;-94
2021/07/05 01:37:59;;;;;;;18.63;10.30;;;16.40;99.90;;;;;;4986700;28;20062;-94
2021/07/05 01:40:25;;;;;;;19.27;12.10;;;16.40;99.90;;;;;;4957105;28;20069;-94
2021/07/05 01:42:57;;;;;;;16.95;11.68;;;16.40;99.90;;;;;;4970684;28;20041;-94
2021/07/05 01:45:30;;;;;;;23.17;11.52;;;16.40;99.90;;;;;;4990168;28;20047;-95
2021/07/05 01:47:56;;;;;;;18.00;11.07;;;16.30;99.90;;;;;;4973336;28;20046;-91
2021/07/05 01:50:23;;;;;;;17.02;11.48;;;16.40;99.90;;;;;;4956903;28;20050;-94
2021/07/05 01:52:50;;;;;;;24.52;11.82;;;16.40;99.90;;;;;;4987641;28;20076;-92
2021/07/05 01:55:16;;;;;;;16.65;12.20;;;16.40;99.90;;;;;;4989444;28;20061;-93
2021/07/05 01:57:42;;;;;;;21.92;12.55;;;16.40;99.90;;;;;;4962790;28;20063;-95
2021/07/05 02:00:19;;;;;;;24.10;13.55;;;16.30;99.90;;;;;;4995981;28;20483;-92
2021/07/05 02:02:48;;;;;;;19.92;11.90;;;16.40;99.90;;;;;;4987407;28;20046;-95
2021/07/05 02:05:16;;;;;;;16.13;11.52;;;16.40;99.90;;;;;;4971106;28;20049;-96
2021/07/05 02:07:44;;;;;;;20.75;11.73;;;16.40;99.90;;;;;;4976185;28;20091;-95
2021/07/05 02:10:13;;;;;;;16.50;11.13;;;16.40;99.90;;;;;;4990226;28;20053;-94
2021/07/05 02:12:40;;;;;;;15.68;11.68;;;16.40;99.90;;;;;;4991008;28;20030;-95
2021/07/05 02:15:11;;;;;;;14.50;10.82;;;16.40;99.90;;;;;;4956159;28;20046;-93
2021/07/05 02:17:37;;;;;;;20.98;12.68;;;16.40;99.90;;;;;;4956957;28;20046;-95
2021/07/05 02:20:10;;;;;;;21.13;10.95;;;16.40;99.90;;;;;;4991127;28;20088;-96
2021/07/05 02:22:36;;;;;;;19.35;11.38;;;16.50;99.90;;;;;;4977348;28;20050;-96
2021/07/05 02:25:06;;;;;;;16.83;9.70;;;16.40;99.90;;;;;;4975899;28;20047;-94
2021/07/05 02:27:31;;;;;;;17.42;8.35;;;16.40;99.90;;;;;;4989661;28;20046;-95
2021/07/05 02:29:58;;;;;;;13.43;8.52;;;16.50;99.90;;;;;;4957370;28;20493;-95
2021/07/05 02:32:24;;;;;;;22.83;9.13;;;16.50;99.90;;;;;;4982174;28;20042;-96
2021/07/05 02:34:49;;;;;;;19.10;9.25;;;16.40;99.90;;;;;;4956760;28;20035;-94
2021/07/05 02:37:15;;;;;;;23.30;8.77;;;16.50;99.90;;;;;;4989368;28;20043;-92
2021/07/05 02:39:41;;;;;;;25.27;9.68;;;16.50;99.90;;;;;;4971955;28;20046;-96
2021/07/05 02:42:07;;;;;;;14.93;8.82;;;16.50;99.90;;;;;;4952239;28;20038;-95
2021/07/05 02:44:34;;;;;;;25.70;8.98;;;16.50;99.90;;;;;;4961485;28;20039;-93
2021/07/05 02:47:00;;;;;;;14.25;8.80;;;16.50;99.90;;;;;;4961462;28;20042;-93
2021/07/05 02:49:26;;;;;;;11.52;8.23;;;16.50;99.90;;;;;;4959937;28;20049;-94
2021/07/05 02:51:51;;;;;;;14.57;7.97;;;16.50;99.90;;;;;;4943407;28;20035;-96
2021/07/05 02:54:17;;;;;;;16.45;7.38;;;16.50;99.90;;;;;;4972478;28;20078;-93
2021/07/05 02:56:43;;;;;;;21.38;8.52;;;16.50;99.90;;;;;;4974294;28;20556;-93
2021/07/05 02:59:09;;;;;;;20.73;8.30;;;16.40;99.90;;;;;;4984341;28;20062;-92
2021/07/05 03:01:35;;;;;;;17.67;8.73;;;16.50;99.90;;;;;;4982936;28;20070;-95
2021/07/05 03:04:01;;;;;;;16.48;8.18;;;16.40;99.90;;;;;;4977664;28;20046;-95
2021/07/05 03:06:26;;;;;;;13.00;7.50;;;16.30;99.90;;;;;;4977226;28;20517;-96
2021/07/05 03:08:52;;;;;;;13.18;9.07;;;16.30;99.90;;;;;;4993866;28;20061;-95
2021/07/05 03:11:18;;;;;;;15.50;8.00;;;16.20;99.90;;;;;;4957467;28;20035;-96
2021/07/05 03:13:44;;;;;;;14.45;7.95;;;16.20;99.90;;;;;;4981806;28;20124;-96
2021/07/05 03:16:10;;;;;;;15.20;8.13;;;16.10;99.90;;;;;;4987698;28;20078;-93
2021/07/05 03:18:36;;;;;;;12.07;7.28;;;16.10;99.90;;;;;;4984664;28;20081;-95
2021/07/05 03:21:02;;;;;;;11.90;8.00;;;16.00;99.90;;;;;;4970093;28;20042;-94
2021/07/05 03:23:28;;;;;;;13.38;8.90;;;16.10;99.90;;;;;;4982958;28;20049;-95
2021/07/05 03:25:55;;;;;;;19.73;9.43;;;16.10;99.90;;;;;;4993199;28;20092;-94
2021/07/05 03:28:22;;;;;;;13.75;9.63;;;16.10;99.90;;;;;;4994075;28;20042;-94
2021/07/05 03:30:50;;;;;;;13.90;7.72;;;16.10;99.90;;;;;;4939990;28;20414;-95
2021/07/05 03:33:16;;;;;;;12.20;7.70;;;16.10;99.90;;;;;;4991221;28;20038;-94
2021/07/05 03:35:44;;;;;;;14.18;9.45;;;16.20;99.90;;;;;;4994551;28;20050;-95
2021/07/05 03:38:09;;;;;;;16.13;8.60;;;16.20;99.90;;;;;;4989981;28;20483;-94
2021/07/05 03:40:37;;;;;;;21.40;9.15;;;16.20;99.90;;;;;;4982576;28;20097;-95
2021/07/05 03:43:04;;;;;;;15.52;8.88;;;16.20;99.90;;;;;;4959557;28;20117;-93
2021/07/05 03:45:32;;;;;;;17.35;7.90;;;16.20;99.90;;;;;;4980981;28;20046;-93
2021/07/05 03:47:59;;;;;;;11.73;7.50;;;16.20;99.90;;;;;;4979826;28;20450;-94
2021/07/05 03:50:26;;;;;;;21.33;9.32;;;16.20;99.90;;;;;;4979550;28;20053;-95
2021/07/05 03:52:52;;;;;;;11.15;8.32;;;16.20;99.90;;;;;;4977237;28;20038;-95
2021/07/05 03:55:22;;;;;;;14.20;8.10;;;16.20;99.90;;;;;;4980204;28;20066;-95
2021/07/05 03:57:50;;;;;;;13.73;8.73;;;16.20;99.90;;;;;;4992702;28;20046;-96
2021/07/05 04:00:23;;;;;;;13.63;8.57;;;16.20;99.90;;;;;;4992610;28;20038;-94
2021/07/05 04:02:49;;;;;;;14.60;8.52;;;16.20;99.90;;;;;;4987422;28;20057;-94
2021/07/05 04:05:15;;;;;;;12.35;7.45;;;16.20;99.90;;;;;;4963196;28;20070;-94
2021/07/05 04:07:43;;;;;;;19.77;8.68;;;16.20;99.90;;;;;;4992905;28;20097;-93
2021/07/05 04:10:10;;;;;;;12.48;7.90;;;16.20;99.90;;;;;;4988751;28;20137;-95
2021/07/05 04:12:36;;;;;;;12.05;8.35;;;16.20;99.90;;;;;;4991900;28;20622;-95
2021/07/05 04:15:04;;;;;;;18.23;9.15;;;16.20;99.90;;;;;;4993798;28;20038;-94
2021/07/05 04:17:30;;;;;;;17.98;8.65;;;16.10;99.90;;;;;;4963126;28;20085;-96
2021/07/05 04:19:55;;;;;;;15.98;8.82;;;16.10;99.90;;;;;;4964179;28;20066;-95
2021/07/05 04:22:21;;;;;;;20.17;9.90;;;16.10;99.90;;;;;;4991933;28;20097;-93
2021/07/05 04:24:47;;;;;;;15.70;9.23;;;16.10;99.90;;;;;;4961655;28;20042;-93
2021/07/05 04:27:14;;;;;;;16.63;9.27;;;16.20;99.90;;;;;;4975389;28;20093;-93
2021/07/05 04:29:41;;;;;;;22.80;10.82;;;16.20;99.90;;;;;;4962294;28;20045;-94
2021/07/05 04:32:08;;;;;;;19.85;11.52;;;16.20;99.90;;;;;;4989587;28;20043;-91
2021/07/05 04:34:34;;;;;;;12.68;9.98;;;16.20;99.90;;;;;;4986330;28;20110;-91
2021/07/05 04:37:01;;;;;;;18.20;11.68;;;16.30;99.90;;;;;;4981415;28;20051;-92
2021/07/05 04:39:27;;;;;;;26.13;13.27;;;16.30;99.90;;;;;;4983939;28;20043;-92
2021/07/05 04:41:53;;;;;;;15.63;12.55;;;16.30;99.90;;;;;;4990265;28;20034;-92
2021/07/05 04:44:20;;;;;;;23.13;14.93;;;16.40;99.90;;;;;;4972452;28;20042;-92
2021/07/05 04:46:49;;;;;;;22.23;14.40;;;16.40;99.90;;;;;;4987209;28;20410;-92
2021/07/05 04:49:16;;;;;;;19.05;14.70;;;16.40;99.90;;;;;;4962751;28;20042;-91
2021/07/05 04:51:43;;;;;;;21.35;14.60;;;16.40;99.90;;;;;;4970615;28;20043;-93
2021/07/05 04:54:09;;;;;;;22.40;14.38;;;16.50;99.90;;;;;;4964414;28;20058;-91
2021/07/05 04:56:34;;;;;;;30.45;14.68;;;16.40;99.90;;;;;;4942852;28;20077;-92
2021/07/05 04:59:01;;;;;;;22.75;16.35;;;16.40;99.90;;;;;;4965704;28;20062;-93
2021/07/05 05:01:27;;;;;;;29.95;17.63;;;16.40;99.90;;;;;;4978325;28;20054;-91
2021/07/05 05:03:52;;;;;;;22.77;15.70;;;16.50;99.90;;;;;;4977251;28;20038;-91
2021/07/05 05:06:18;;;;;;;24.17;17.95;;;16.50;99.90;;;;;;4978093;28;20042;-92
2021/07/05 05:08:45;;;;;;;21.67;16.08;;;16.50;99.90;;;;;;4983028;28;20054;-92
2021/07/05 05:11:11;;;;;;;25.13;17.88;;;16.50;99.90;;;;;;4990100;28;20042;-91
2021/07/05 05:13:37;;;;;;;25.00;16.88;;;16.60;99.90;;;;;;4991535;28;20058;-92
2021/07/05 05:16:03;;;;;;;28.75;16.98;;;16.60;99.90;;;;;;4971159;28;20079;-91
2021/07/05 05:18:29;;;;;;;26.15;16.23;;;16.70;99.90;;;;;;4954555;28;20077;-92
2021/07/05 05:20:55;;;;;;;23.85;17.00;;;16.70;99.90;;;;;;4939288;28;20043;-91
2021/07/05 05:23:22;;;;;;;23.40;16.95;;;16.80;99.90;;;;;;4957952;28;20493;-91
2021/07/05 05:25:48;;;;;;;21.98;14.93;;;16.80;99.90;;;;;;4973967;28;20058;-92
2021/07/05 05:28:14;;;;;;;23.90;15.82;;;16.90;99.90;;;;;;4949430;29;20051;-92
2021/07/05 05:30:40;;;;;;;25.92;14.95;;;16.90;99.90;;;;;;4981416;28;20046;-91
2021/07/05 05:33:06;;;;;;;21.38;15.30;;;17.10;99.90;;;;;;4954489;28;20038;-91
2021/07/05 05:35:33;;;;;;;29.77;17.52;;;17.20;99.90;;;;;;4938216;28;20046;-91
2021/07/05 05:37:59;;;;;;;27.20;18.88;;;17.20;99.90;;;;;;4983946;28;20046;-92
2021/07/05 05:40:26;;;;;;;24.33;17.48;;;17.20;99.90;;;;;;4978757;28;20054;-92
2021/07/05 05:42:52;;;;;;;29.77;17.25;;;17.10;99.90;;;;;;4980012;28;20063;-92
2021/07/05 05:45:18;;;;;;;28.27;18.25;;;17.10;99.90;;;;;;4990943;28;20050;-91
2021/07/05 05:47:44;;;;;;;28.42;17.80;;;17.10;99.90;;;;;;4973636;28;20932;-94
2021/07/05 05:50:11;;;;;;;26.35;18.40;;;17.10;99.90;;;;;;4976747;28;20066;-91
2021/07/05 05:52:37;;;;;;;26.92;19.65;;;17.10;99.90;;;;;;4983598;28;20043;-92
2021/07/05 05:55:05;;;;;;;27.50;18.92;;;17.20;99.90;;;;;;4985031;28;20133;-93
2021/07/05 05:57:32;;;;;;;27.70;18.80;;;17.20;99.90;;;;;;4978401;28;20042;-93
2021/07/05 06:00:01;;;;;;;32.47;21.13;;;17.30;99.90;;;;;;4988930;28;20060;-93
2021/07/05 06:02:28;;;;;;;30.70;20.20;;;17.30;99.90;;;;;;4975427;28;20053;-92
2021/07/05 06:04:54;;;;;;;31.13;21.52;;;17.40;99.90;;;;;;4951362;28;20063;-93
2021/07/05 06:07:20;;;;;;;28.05;21.48;;;17.60;99.90;;;;;;4954475;28;20082;-93
2021/07/05 06:09:46;;;;;;;27.05;19.52;;;17.60;99.90;;;;;;4971521;28;20030;-92
2021/07/05 06:12:12;;;;;;;26.45;20.15;;;17.70;99.90;;;;;;4970418;28;20054;-91
2021/07/05 06:14:38;;;;;;;31.05;20.13;;;17.80;99.90;;;;;;4983481;28;20046;-92
2021/07/05 06:17:04;;;;;;;21.55;18.27;;;17.90;99.90;;;;;;4982332;28;20094;-92
2021/07/05 06:19:30;;;;;;;24.10;18.67;;;18.10;99.90;;;;;;4979003;28;20038;-92
2021/07/05 06:21:56;;;;;;;23.73;17.52;;;18.40;99.90;;;;;;4994638;28;20042;-92
2021/07/05 06:24:22;;;;;;;24.10;19.20;;;18.60;99.90;;;;;;4991759;28;20039;-92
2021/07/05 06:26:48;;;;;;;22.30;17.63;;;18.60;99.90;;;;;;4973939;28;20109;-92
2021/07/05 06:29:14;;;;;;;21.35;17.45;;;18.60;99.90;;;;;;4987929;28;20054;-92
2021/07/05 06:31:41;;;;;;;20.40;16.30;;;18.60;99.90;;;;;;4993777;28;20038;-93
2021/07/05 06:34:08;;;;;;;20.77;15.55;;;18.70;99.90;;;;;;4972042;28;20050;-91
2021/07/05 06:36:35;;;;;;;20.13;15.90;;;18.80;99.90;;;;;;4991588;28;20050;-92
2021/07/05 06:39:01;;;;;;;20.80;14.77;;;18.80;99.90;;;;;;4977873;28;20064;-92
2021/07/05 06:41:27;;;;;;;16.77;14.30;;;18.90;99.90;;;;;;4980148;28;20408;-93
2021/07/05 06:43:53;;;;;;;19.25;14.77;;;18.90;99.90;;;;;;4987836;28;20043;-92
2021/07/05 06:46:21;;;;;;;19.88;14.90;;;18.90;99.90;;;;;;4987981;28;20430;-91
2021/07/05 06:48:48;;;;;;;19.80;14.95;;;18.90;99.90;;;;;;4948760;28;20609;-92
2021/07/05 06:51:13;;;;;;;22.08;14.55;;;18.90;99.90;;;;;;4981896;28;20063;-92
2021/07/05 06:53:39;;;;;;;17.77;13.70;;;18.80;99.90;;;;;;4968512;28;20094;-91
2021/07/05 06:56:05;;;;;;;16.40;13.90;;;18.70;99.90;;;;;;4966138;28;20823;-92
2021/07/05 06:58:31;;;;;;;20.10;14.13;;;18.70;99.90;;;;;;4974293;28;20101;-93
2021/07/05 07:00:59;;;;;;;20.85;14.38;;;18.60;99.90;;;;;;4968869;28;20051;-93
2021/07/05 07:03:27;;;;;;;21.90;15.23;;;18.60;99.90;;;;;;4975466;28;20093;-94
2021/07/05 07:05:52;;;;;;;15.05;13.40;;;18.60;99.90;;;;;;4957758;28;20099;-93
2021/07/05 07:08:18;;;;;;;15.02;12.95;;;18.50;99.90;;;;;;4952726;28;20051;-91
2021/07/05 07:10:47;;;;;;;18.25;14.13;;;18.60;99.90;;;;;;4942580;28;20479;-94
2021/07/05 07:13:13;;;;;;;16.05;13.18;;;18.60;99.90;;;;;;4966651;28;20050;-95
2021/07/05 07:15:44;;;;;;;16.75;13.25;;;18.70;99.90;;;;;;4972852;28;20458;-94
2021/07/05 07:20:41;;;;;;;20.77;13.07;;;18.80;99.90;;;;;;4961638;28;20050;-92
2021/07/05 07:23:07;;;;;;;16.33;12.80;;;18.80;99.90;;;;;;4991816;28;20043;-95
2021/07/05 07:25:33;;;;;;;24.35;14.77;;;18.70;99.90;;;;;;4974223;28;20043;-93
2021/07/05 07:27:59;;;;;;;17.48;12.85;;;18.70;99.90;;;;;;4987521;28;20100;-92
2021/07/05 07:30:25;;;;;;;14.82;13.18;;;18.70;99.90;;;;;;4947242;28;20153;-90
2021/07/05 07:32:51;;;;;;;35.10;14.85;;;18.60;99.90;;;;;;4981717;28;20039;-92
2021/07/05 07:35:18;;;;;;;21.05;11.50;;;18.50;99.90;;;;;;4987994;28;20057;-89
2021/07/05 07:37:46;;;;;;;14.68;7.68;;;18.40;99.90;;;;;;4987330;28;20126;-91
2021/07/05 07:42:47;;;;;;;8.82;6.03;;;17.40;99.90;;;;;;4982848;28;20398;-93
2021/07/05 07:45:14;;;;;;;7.53;4.15;;;17.20;99.90;;;;;;4976221;28;20061;-92
2021/07/05 07:47:41;;;;;;;5.25;4.43;;;16.90;99.90;;;;;;4939586;28;20045;-89
2021/07/05 07:50:09;;;;;;;3.83;3.33;;;16.70;99.90;;;;;;4978593;28;20042;-90
2021/07/05 07:52:35;;;;;;;6.40;4.03;;;16.50;99.90;;;;;;4953207;28;20043;-93
2021/07/05 07:55:02;;;;;;;13.60;4.22;;;16.40;99.90;;;;;;4967609;28;20121;-91
2021/07/05 07:57:28;;;;;;;11.30;4.35;;;16.10;99.90;;;;;;4940762;28;20054;-96
2021/07/05 07:59:54;;;;;;;14.52;5.97;;;16.00;99.90;;;;;;4938848;28;20668;-90
2021/07/05 08:02:19;;;;;;;13.60;5.82;;;15.80;99.90;;;;;;4973179;28;20615;-94
2021/07/05 08:04:45;;;;;;;15.63;6.15;;;15.60;99.90;;;;;;4971573;28;20142;-92
2021/07/05 08:07:11;;;;;;;14.60;3.67;;;15.50;99.90;;;;;;4976568;28;20039;-96
2021/07/05 08:09:39;;;;;;;8.35;2.60;;;15.40;99.90;;;;;;4961710;28;20047;-93
2021/07/05 08:12:07;;;;;;;3.08;2.80;;;15.20;99.90;;;;;;4964799;28;20151;-92
2021/07/05 08:14:33;;;;;;;4.88;2.50;;;15.20;99.90;;;;;;4971971;28;20038;-92
2021/07/05 08:16:59;;;;;;;11.48;2.38;;;15.10;99.90;;;;;;4970842;28;20042;-92
2021/07/05 08:19:25;;;;;;;2.55;2.35;;;15.00;99.90;;;;;;4974681;28;20133;-91
2021/07/05 08:21:51;;;;;;;2.20;1.23;;;15.00;99.90;;;;;;4977471;28;20042;-91
2021/07/05 08:24:16;;;;;;;2.78;1.20;;;14.90;99.90;;;;;;4970820;28;20047;-91
2021/07/05 08:26:42;;;;;;;0.80;0.70;;;14.80;99.90;;;;;;4976127;28;20054;-92
2021/07/05 08:29:08;;;;;;;1.42;0.75;;;14.80;99.90;;;;;;4978289;28;20034;-93
2021/07/05 08:31:34;;;;;;;4.78;0.85;;;14.70;99.90;;;;;;4943551;28;20104;-91
2021/07/05 08:34:01;;;;;;;3.08;0.85;;;14.60;99.90;;;;;;4945448;28;20055;-90
2021/07/05 08:36:28;;;;;;;1.20;0.75;;;14.70;99.90;;;;;;4981229;28;20083;-91
2021/07/05 08:38:54;;;;;;;0.75;0.60;;;14.70;99.90;;;;;;4965481;28;20073;-91
2021/07/05 08:41:20;;;;;;;5.78;0.60;;;14.80;99.90;;;;;;4979436;28;20432;-90
2021/07/05 08:43:47;;;;;;;3.58;0.77;;;14.70;99.90;;;;;;4960806;28;20046;-92
2021/07/05 08:46:18;;;;;;;5.30;0.93;;;14.80;99.90;;;;;;4973081;28;20120;-92
2021/07/05 08:48:45;;;;;;;5.05;1.00;;;14.80;99.90;;;;;;4974720;28;20044;-92
2021/07/05 08:51:19;;;;;;;1.35;0.77;;;14.80;99.90;;;;;;4977495;28;20491;-92
2021/07/05 08:53:46;;;;;;;3.15;0.50;;;14.80;99.90;;;;;;4984311;28;20093;-92
2021/07/05 08:56:13;;;;;;;1.92;0.52;;;14.70;99.90;;;;;;4980752;28;20112;-92
2021/07/05 08:58:40;;;;;;;2.72;0.80;;;14.70;99.90;;;;;;4961245;28;20509;-91
2021/07/05 09:01:09;;;;;;;0.30;0.30;;;14.70;99.90;;;;;;4978562;28;20041;-90
2021/07/05 09:03:35;;;;;;;3.92;0.75;;;14.60;99.90;;;;;;4961721;28;20516;-90
2021/07/05 09:06:13;;;;;;;0.80;0.30;;;14.80;99.90;;;;;;4976904;28;20030;-92
2021/07/05 09:08:45;;;;;;;0.75;0.43;;;14.80;99.90;;;;;;4979129;28;20072;-91
2021/07/05 09:11:18;;;;;;;0.55;0.40;;;14.90;99.90;;;;;;4978642;28;20047;-91
2021/07/05 09:13:52;;;;;;;0.90;0.50;;;15.00;99.90;;;;;;4981678;28;20035;-92
2021/07/05 09:16:37;;;;;;;1.10;0.52;;;15.10;99.90;;;;;;4972413;28;20641;-92
2021/07/05 09:19:32;;;;;;;0.73;0.45;;;15.20;99.90;;;;;;4972733;28;20866;-91
2021/07/05 09:22:00;;;;;;;0.50;0.50;;;15.40;99.90;;;;;;4980254;28;20147;-92
2021/07/05 09:24:41;;;;;;;1.08;0.40;;;15.60;99.90;;;;;;4983070;28;20501;-93
2021/07/05 09:27:18;;;;;;;2.58;0.63;;;15.80;99.90;;;;;;4987492;28;20038;-91
2021/07/05 09:29:45;;;;;;;1.05;0.43;;;16.10;99.90;;;;;;4983255;28;20039;-90
2021/07/05 09:32:22;;;;;;;0.75;0.60;;;16.30;99.90;;;;;;4980346;28;20038;-91
2021/07/05 09:34:48;;;;;;;3.83;0.65;;;16.60;99.90;;;;;;4979052;28;20055;-92
2021/07/05 09:37:21;;;;;;;1.85;0.73;;;16.80;99.90;;;;;;4979298;28;20042;-89
2021/07/05 09:40:07;;;;;;;2.20;0.80;;;17.10;99.90;;;;;;4990500;28;20093;-92
2021/07/05 09:42:44;;;;;;;1.25;0.90;;;17.40;99.90;;;;;;4985668;28;20793;-91
2021/07/05 09:45:41;;;;;;;2.67;1.10;;;17.60;99.90;;;;;;4985895;28;20058;-91
2021/07/05 09:48:25;;;;;;;2.03;1.27;;;17.80;99.90;;;;;;4967095;28;20085;-93
2021/07/05 09:51:03;;;;;;;2.40;1.33;;;18.10;99.90;;;;;;4982844;28;20038;-91
2021/07/05 09:53:32;;;;;;;2.00;1.35;;;18.30;99.90;;;;;;4986980;28;20058;-91
2021/07/05 09:56:20;;;;;;;1.45;1.10;;;18.50;99.90;;;;;;4983581;28;20454;-94
2021/07/05 09:58:51;;;;;;;2.55;1.40;;;18.80;99.90;;;;;;4987570;28;20066;-92
2021/07/05 10:01:40;;;;;;;2.60;1.77;;;19.10;99.90;;;;;;4981070;28;20043;-93
2021/07/05 10:04:09;;;;;;;2.72;1.80;;;19.30;99.90;;;;;;4975572;28;20034;-92
2021/07/05 10:06:44;;;;;;;3.05;1.58;;;19.40;99.90;;;;;;4982230;28;20689;-92
2021/07/05 10:09:11;;;;;;;2.83;1.92;;;19.50;99.90;;;;;;4975898;28;20035;-92
2021/07/05 10:11:37;;;;;;;1.70;1.60;;;19.70;99.90;;;;;;4974912;28;20482;-91
2021/07/05 10:14:22;;;;;;;3.08;1.85;;;19.80;99.90;;;;;;4964610;28;20505;-92
2021/07/05 10:16:50;;;;;;;3.38;1.90;;;19.80;99.90;;;;;;4971923;28;20093;-91
2021/07/05 10:19:16;;;;;;;4.07;2.00;;;19.90;99.90;;;;;;4989447;28;20050;-92
2021/07/05 10:21:43;;;;;;;7.32;1.90;;;20.00;99.90;;;;;;4983396;28;20042;-92
2021/07/05 10:24:09;;;;;;;4.53;2.40;;;20.00;99.90;;;;;;4974454;28;20081;-94
2021/07/05 10:26:38;;;;;;;3.17;2.17;;;20.00;99.90;;;;;;4966291;28;20097;-91
2021/07/05 10:29:06;;;;;;;4.68;1.80;;;20.00;99.90;;;;;;4965398;28;20043;-92
2021/07/05 10:31:34;;;;;;;3.67;1.95;;;20.10;99.90;;;;;;4972834;28;20035;-90
2021/07/05 10:34:01;;;;;;;4.20;2.03;;;20.00;99.90;;;;;;4975889;28;20499;-91
2021/07/05 10:36:32;;;;;;;6.10;2.20;;;20.10;99.90;;;;;;4956291;28;20047;-90
2021/07/05 10:39:01;;;;;;;9.13;2.53;;;20.10;99.90;;;;;;4977403;28;20100;-91
2021/07/05 10:41:40;;;;;;;7.20;2.85;;;20.10;99.90;;;;;;4980924;28;20414;-89
2021/07/05 10:44:09;;;;;;;6.47;2.60;;;20.30;99.90;;;;;;4953458;28;20043;-90
2021/07/05 10:46:44;;;;;;;5.68;2.75;;;20.50;99.90;;;;;;4972909;28;20053;-92
2021/07/05 10:49:31;;;;;;;7.82;2.67;;;20.70;99.90;;;;;;4973774;28;20051;-92
2021/07/05 10:52:08;;;;;;;4.43;2.30;;;20.80;99.90;;;;;;4973251;28;20406;-93
2021/07/05 10:54:50;;;;;;;6.75;2.13;;;20.90;99.90;;;;;;4969266;28;20050;-92
2021/07/05 10:57:41;;;;;;;12.65;2.75;;;21.00;99.90;;;;;;4976104;28;20542;-94
2021/07/05 11:00:09;;;;;;;5.43;2.40;;;21.10;99.90;;;;;;4970099;28;20057;-92
2021/07/05 11:02:46;;;;;;;10.15;2.55;;;21.30;99.90;;;;;;4969371;28;20409;-93
2021/07/05 11:05:42;;;;;;;9.15;2.80;;;21.60;99.90;;;;;;4980835;28;20129;-94
2021/07/05 11:08:20;;;;;;;5.50;2.45;;;21.70;99.90;;;;;;4959058;28;20705;-90
2021/07/05 11:10:47;;;;;;;3.30;2.25;;;21.80;99.90;;;;;;4971576;28;20070;-92
2021/07/05 11:13:16;;;;;;;8.75;2.78;;;21.90;99.90;;;;;;4975172;28;20045;-92
2021/07/05 11:15:57;;;;;;;8.00;2.80;;;22.10;99.90;;;;;;4976069;28;20053;-93
2021/07/05 11:18:45;;;;;;;8.18;2.90;;;22.00;99.90;;;;;;4992150;28;20049;-92
2021/07/05 11:21:23;;;;;;;7.88;2.78;;;22.00;99.90;;;;;;4987161;28;20105;-92
2021/07/05 11:26:23;;;;;;;5.00;2.75;;;21.90;99.90;;;;;;4978884;28;20823;-93
2021/07/05 11:29:14;;;;;;;4.68;2.67;;;21.80;99.90;;;;;;4976483;28;20049;-92
2021/07/05 11:31:56;;;;;;;12.55;3.00;;;21.90;99.90;;;;;;4960184;28;20047;-92
2021/07/05 11:34:25;;;;;;;9.52;2.63;;;21.90;99.90;;;;;;4943148;28;20086;-91
2021/07/05 11:37:11;;;;;;;6.28;2.70;;;22.10;99.90;;;;;;4985571;28;20484;-92
2021/07/05 11:39:39;;;;;;;6.78;2.58;;;22.30;99.90;;;;;;4973656;28;20051;-90
2021/07/05 11:42:04;;;;;;;14.55;2.58;;;22.40;99.90;;;;;;4974681;28;20534;-91
2021/07/05 11:44:47;;;;;;;9.70;2.72;;;22.30;99.90;;;;;;4975214;28;20125;-90
2021/07/05 11:47:42;;;;;;;6.38;2.35;;;22.60;99.90;;;;;;4968938;28;20117;-90
2021/07/05 11:50:27;;;;;;;10.68;2.70;;;22.70;99.90;;;;;;4991457;28;20073;-90
2021/07/05 11:53:03;;;;;;;8.18;2.40;;;22.80;99.90;;;;;;4987973;28;20376;-91
2021/07/05 11:55:32;;;;;;;8.32;2.33;;;22.80;99.90;;;;;;4955470;28;20399;-90
2021/07/05 11:58:05;;;;;;;5.53;2.33;;;22.90;99.90;;;;;;4977514;28;20043;-91
2021/07/05 12:00:36;;;;;;;11.88;2.83;;;22.90;99.90;;;;;;4992087;28;20339;-90
2021/07/05 12:03:12;;;;;;;7.18;2.35;;;23.20;99.90;;;;;;4984918;28;20046;-90
2021/07/05 12:05:41;;;;;;;6.82;2.35;;;23.40;99.90;;;;;;4990687;28;20066;-90
2021/07/05 12:08:11;;;;;;;8.52;2.50;;;23.70;99.90;;;;;;4991559;28;20042;-90
2021/07/05 12:10:40;;;;;;;6.60;2.25;;;23.80;99.90;;;;;;4991969;28;20074;-89
2021/07/05 12:13:24;;;;;;;8.55;2.50;;;23.80;99.90;;;;;;4984819;28;20038;-89
2021/07/05 12:16:03;;;;;;;9.38;2.67;;;24.10;99.90;;;;;;4975517;28;20074;-88
2021/07/05 12:18:30;;;;;;;8.40;2.33;;;24.30;99.90;;;;;;4972165;28;20058;-89
2021/07/05 12:20:57;;;;;;;11.48;2.47;;;24.50;99.90;;;;;;4972262;28;20043;-90
2021/07/05 12:23:31;;;;;;;6.40;2.75;;;24.60;99.90;;;;;;4978795;28;20046;-89
2021/07/05 12:26:09;;;;;;;3.35;2.20;;;24.50;99.90;;;;;;5000277;28;20046;-91
2021/07/05 12:28:35;;;;;;;8.85;2.72;;;24.50;99.90;;;;;;4961570;28;20054;-88
2021/07/05 12:31:00;;;;;;;7.85;2.50;;;24.70;99.90;;;;;;4980047;28;20039;-89
2021/07/05 12:33:27;;;;;;;8.70;2.20;;;24.60;99.90;;;;;;4971458;28;20080;-89
2021/07/05 12:35:58;;;;;;;7.53;2.50;;;24.80;99.90;;;;;;4974944;28;20042;-90
2021/07/05 12:38:26;;;;;;;7.38;3.35;;;24.90;99.90;;;;;;4978969;28;20043;-89
2021/07/05 12:40:52;;;;;;;7.13;2.60;;;24.90;99.90;;;;;;4957397;28;20401;-88
2021/07/05 12:43:18;;;;;;;5.50;2.53;;;25.10;99.90;;;;;;4975718;28;20301;-88
2021/07/05 12:45:52;;;;;;;8.75;2.58;;;24.90;99.90;;;;;;4972358;28;20058;-89
2021/07/05 12:48:25;;;;;;;7.38;2.33;;;24.90;99.90;;;;;;4975275;28;20254;-88
2021/07/05 12:50:52;;;;;;;6.05;2.40;;;25.20;99.90;;;;;;4972598;28;20066;-89